Time;durP1;ratioP1;P1;durP2;ratioP2;P2;SDS_P1;SDS_P2;PMS_P1;PMS_P2;Temp;Humidity;BMP_temperature;BMP_pressure;BME280_temperature;BME280_humidity;BME280_pressure;Samples;Min_cycle;Max_cycle;Signal;HPM_P1;HPM_P2
2022/11/20 00:00:54;;;;;;;20.48;14.38;;;;;;;4.24;79.73;100270.75;4187528;28;20036;-64
2022/11/20 00:02:57;;;;;;;21.40;14.73;;;;;;;4.22;79.73;100271.50;4186835;28;20044;-64
2022/11/20 00:05:00;;;;;;;20.83;14.55;;;;;;;4.24;79.95;100272.47;4182647;28;20072;-64
2022/11/20 00:07:03;;;;;;;19.73;14.50;;;;;;;4.24;80.09;100269.88;4180329;28;20044;-64
2022/11/20 00:09:06;;;;;;;21.10;14.45;;;;;;;4.25;79.90;100269.03;4183555;28;20045;-64
2022/11/20 00:11:11;;;;;;;18.10;12.60;;;;;;;4.25;79.63;100261.31;4181902;28;20500;-64
2022/11/20 00:13:19;;;;;;;17.50;12.80;;;;;;;4.34;79.80;100264.25;4186951;28;20040;-64
2022/11/20 00:15:22;;;;;;;18.75;13.45;;;;;;;4.35;79.43;100256.59;4173696;28;20106;-64
2022/11/20 00:17:25;;;;;;;18.60;13.20;;;;;;;4.39;79.35;100255.00;4188025;28;20309;-63
2022/11/20 00:19:28;;;;;;;19.27;14.07;;;;;;;4.43;79.42;100251.72;4181954;28;20125;-63
2022/11/20 00:21:30;;;;;;;19.92;14.27;;;;;;;4.43;79.72;100256.84;4190822;28;20036;-63
2022/11/20 00:23:33;;;;;;;19.92;14.48;;;;;;;4.45;79.67;100250.03;4178093;28;20087;-63
2022/11/20 00:25:36;;;;;;;18.42;12.80;;;;;;;4.45;79.94;100254.34;4193823;28;20089;-63
2022/11/20 00:27:39;;;;;;;20.23;13.77;;;;;;;4.45;79.62;100257.78;4191693;28;20037;-63
2022/11/20 00:29:43;;;;;;;21.25;15.32;;;;;;;4.49;79.47;100262.22;4188740;28;20045;-64
2022/11/20 00:31:46;;;;;;;22.45;15.45;;;;;;;4.53;79.28;100252.91;4196767;28;20036;-64
2022/11/20 00:33:49;;;;;;;20.00;14.02;;;;;;;4.55;79.05;100256.41;4192519;28;20044;-63
2022/11/20 00:35:52;;;;;;;38.80;23.20;;;;;;;4.53;79.44;100258.94;4185833;28;20082;-63
2022/11/20 00:37:55;;;;;;;24.90;16.58;;;;;;;4.57;79.55;100253.88;4191391;28;20041;-63
2022/11/20 00:39:58;;;;;;;19.85;13.95;;;;;;;4.53;79.67;100260.63;4195700;28;20087;-63
2022/11/20 00:42:00;;;;;;;21.67;14.57;;;;;;;4.50;79.70;100260.53;4162666;28;20045;-63
2022/11/20 00:44:03;;;;;;;17.73;13.38;;;;;;;4.50;79.99;100258.81;4178349;28;20502;-63
2022/11/20 00:46:13;;;;;;;19.02;13.70;;;;;;;4.55;80.02;100257.28;4180395;28;20037;-64
2022/11/20 00:48:15;;;;;;;17.20;12.57;;;;;;;4.57;80.01;100265.09;4180530;28;20044;-64
2022/11/20 00:50:18;;;;;;;17.05;11.95;;;;;;;4.53;79.95;100264.06;4179187;28;20048;-64
2022/11/20 00:52:21;;;;;;;18.13;12.98;;;;;;;4.48;79.87;100257.91;4184681;28;20033;-64
2022/11/20 00:54:24;;;;;;;20.70;15.40;;;;;;;4.47;79.87;100253.56;4179443;28;20588;-64
2022/11/20 00:56:27;;;;;;;20.40;14.70;;;;;;;4.48;79.80;100259.59;4180354;28;20037;-64
2022/11/20 00:58:31;;;;;;;18.65;13.75;;;;;;;4.48;79.82;100262.16;4180266;28;20041;-64
2022/11/20 01:00:35;;;;;;;23.98;17.17;;;;;;;4.36;79.81;100273.75;4180396;28;20037;-64
2022/11/20 01:02:39;;;;;;;22.75;16.67;;;;;;;4.37;79.59;100261.78;4180348;28;20041;-64
2022/11/20 01:04:42;;;;;;;20.05;13.90;;;;;;;4.34;79.86;100269.41;4178967;28;20087;-64
2022/11/20 01:06:44;;;;;;;19.55;13.48;;;;;;;4.26;79.79;100265.66;4185766;28;20045;-63
2022/11/20 01:08:48;;;;;;;19.27;13.38;;;;;;;4.27;79.73;100270.88;4188396;28;20036;-64
2022/11/20 01:10:51;;;;;;;19.33;13.25;;;;;;;4.26;79.96;100271.66;4178465;28;20033;-63
2022/11/20 01:15:11;;;;;;;19.08;13.55;;;;;;;4.33;79.74;100260.78;4182587;28;20040;-63
2022/11/20 01:17:14;;;;;;;22.17;14.43;;;;;;;4.38;79.87;100258.41;4191806;28;20049;-63
2022/11/20 01:19:20;;;;;;;18.70;14.00;;;;;;;4.47;79.32;100252.72;4188858;28;20044;-63
2022/11/20 01:21:25;;;;;;;19.60;14.23;;;;;;;4.47;79.25;100247.56;4194334;28;20112;-64
2022/11/20 01:23:31;;;;;;;18.58;13.73;;;;;;;4.39;79.37;100254.13;4188005;28;20145;-64
2022/11/20 01:25:35;;;;;;;17.67;12.63;;;;;;;4.32;79.37;100263.31;4200024;28;20498;-64
2022/11/20 01:27:38;;;;;;;17.80;12.17;;;;;;;4.30;79.55;100254.66;4199557;28;20037;-63
2022/11/20 01:29:41;;;;;;;18.02;12.98;;;;;;;4.37;79.52;100248.91;4183291;28;20052;-63
2022/11/20 01:31:45;;;;;;;18.00;13.27;;;;;;;4.41;79.42;100249.88;4187169;28;20033;-64
2022/11/20 01:33:49;;;;;;;20.55;13.80;;;;;;;4.46;79.05;100256.97;4188318;28;20129;-64
2022/11/20 01:35:54;;;;;;;18.60;13.30;;;;;;;4.50;79.18;100257.97;4196493;28;20071;-64
2022/11/20 01:37:57;;;;;;;21.77;16.20;;;;;;;4.53;79.04;100258.06;4190586;28;20063;-64
2022/11/20 01:39:59;;;;;;;20.73;15.32;;;;;;;4.54;78.54;100254.66;4181982;28;20040;-64
2022/11/20 01:44:54;;;;;;;20.02;15.20;;;;;;;4.59;79.22;100253.13;4183445;28;20080;-64
2022/11/20 01:47:00;;;;;;;20.52;14.88;;;;;;;4.61;79.52;100242.88;4188923;28;20048;-64
2022/11/20 01:49:09;;;;;;;22.20;16.05;;;;;;;4.67;79.50;100243.09;4189387;28;20079;-64
2022/11/20 01:51:21;;;;;;;20.42;14.32;;;;;;;4.67;79.10;100238.84;4181777;28;20037;-64
2022/11/20 01:53:30;;;;;;;19.80;14.07;;;;;;;4.62;79.05;100236.91;4182175;28;20542;-64
2022/11/20 01:55:37;;;;;;;20.63;15.48;;;;;;;4.62;79.43;100231.75;4182973;28;20063;-64
2022/11/20 01:57:41;;;;;;;19.98;15.02;;;;;;;4.65;79.59;100229.28;4182923;28;20513;-63
2022/11/20 01:59:48;;;;;;;21.02;14.57;;;;;;;4.67;79.54;100232.78;4182910;28;20072;-64
2022/11/20 02:01:54;;;;;;;23.73;16.08;;;;;;;4.66;79.71;100233.63;4190791;28;20379;-63
2022/11/20 02:03:58;;;;;;;24.50;16.88;;;;;;;4.70;79.60;100236.34;4181963;28;20045;-63
2022/11/20 02:06:08;;;;;;;22.08;15.98;;;;;;;4.76;79.42;100234.78;4184842;28;20482;-63
2022/11/20 02:08:13;;;;;;;20.55;14.93;;;;;;;4.74;79.18;100239.03;4199069;28;20082;-63
2022/11/20 02:10:17;;;;;;;23.85;16.98;;;;;;;4.74;79.14;100236.47;4197607;28;20422;-63
2022/11/20 02:14:40;;;;;;;18.17;12.95;;;;;;;4.79;79.57;100225.50;4186477;28;20090;-63
2022/11/20 02:16:47;;;;;;;21.42;15.20;;;;;;;4.76;79.55;100225.41;4198940;28;20040;-64
2022/11/20 02:18:51;;;;;;;18.30;13.95;;;;;;;4.74;79.41;100231.31;4190619;28;20033;-64
2022/11/20 02:20:59;;;;;;;19.83;13.95;;;;;;;4.74;79.33;100236.47;4182567;28;20449;-64
2022/11/20 02:23:07;;;;;;;20.42;14.23;;;;;;;4.78;79.25;100235.75;4189387;28;20506;-64
2022/11/20 02:25:12;;;;;;;18.95;13.50;;;;;;;4.78;79.09;100239.19;4197564;28;20040;-64
2022/11/20 02:27:17;;;;;;;18.20;13.02;;;;;;;4.82;78.92;100242.72;4197545;28;20575;-64
2022/11/20 02:29:26;;;;;;;20.23;13.70;;;;;;;4.81;79.07;100235.84;4183797;28;20037;-64
2022/11/20 02:31:29;;;;;;;19.88;13.25;;;;;;;4.82;79.23;100230.75;4190524;28;20097;-64
2022/11/20 02:33:32;;;;;;;17.52;12.57;;;;;;;4.82;79.63;100227.28;4194405;28;20036;-64
2022/11/20 02:35:42;;;;;;;20.98;14.75;;;;;;;4.83;79.61;100217.06;4183411;28;20036;-64
2022/11/20 02:37:47;;;;;;;17.73;12.68;;;;;;;4.81;79.94;100221.25;4196877;28;20074;-64
2022/11/20 02:39:52;;;;;;;21.92;14.70;;;;;;;4.84;79.72;100213.63;4196606;28;20058;-63
2022/11/20 02:41:57;;;;;;;20.85;15.52;;;;;;;4.88;79.39;100220.63;4182266;28;20044;-63
2022/11/20 02:44:00;;;;;;;22.63;15.00;;;;;;;4.85;79.21;100217.97;4182381;28;20056;-63
2022/11/20 02:46:03;;;;;;;20.55;13.10;;;;;;;4.84;79.14;100218.78;4189850;28;20041;-63
2022/11/20 02:48:25;;;;;;;20.58;13.93;;;;;;;4.83;79.40;100211.00;4182412;28;20052;-64
2022/11/20 02:50:30;;;;;;;22.27;14.82;;;;;;;4.84;79.72;100216.19;4184345;28;20045;-63
2022/11/20 02:52:33;;;;;;;24.33;16.45;;;;;;;4.84;79.61;100213.63;4198606;28;20227;-63
2022/11/20 02:54:36;;;;;;;27.75;17.58;;;;;;;4.83;79.53;100214.47;4180942;28;20407;-63
2022/11/20 02:56:39;;;;;;;21.00;13.75;;;;;;;4.80;79.68;100211.78;4181947;28;20423;-63
2022/11/20 02:58:43;;;;;;;20.45;14.30;;;;;;;4.71;79.81;100211.47;4187611;28;20040;-63
2022/11/20 03:00:46;;;;;;;20.52;13.65;;;;;;;4.57;79.92;100223.00;4194934;28;20623;-63
2022/11/20 03:02:49;;;;;;;21.10;14.75;;;;;;;4.57;79.94;100212.69;4184599;28;20041;-63
2022/11/20 03:04:51;;;;;;;22.48;14.55;;;;;;;4.60;80.00;100207.66;4182126;28;20513;-63
2022/11/20 03:06:54;;;;;;;22.95;14.65;;;;;;;4.68;80.03;100208.78;4182909;28;20053;-64
2022/11/20 03:08:57;;;;;;;24.08;14.68;;;;;;;4.66;80.04;100203.59;4186075;28;20033;-64
2022/11/20 03:11:03;;;;;;;24.70;13.85;;;;;;;4.63;79.77;100213.78;4183583;28;20040;-63
2022/11/20 03:13:06;;;;;;;25.98;15.98;;;;;;;4.58;79.88;100206.72;4188948;28;20068;-63
2022/11/20 03:15:11;;;;;;;21.60;13.82;;;;;;;4.55;80.03;100200.63;4184463;28;20040;-63
2022/11/20 03:17:14;;;;;;;22.10;14.70;;;;;;;4.55;80.12;100200.63;4181882;28;20132;-63
2022/11/20 03:19:16;;;;;;;26.65;16.20;;;;;;;4.66;79.96;100195.88;4182537;28;20049;-63
2022/11/20 03:21:19;;;;;;;18.63;12.95;;;;;;;4.71;80.03;100201.16;4189714;28;20406;-63
2022/11/20 03:23:22;;;;;;;18.90;12.90;;;;;;;4.70;80.33;100201.97;4190144;28;20045;-64
2022/11/20 03:25:25;;;;;;;22.98;13.82;;;;;;;4.70;80.02;100197.72;4183754;28;20091;-64
2022/11/20 03:27:32;;;;;;;21.40;12.93;;;;;;;4.68;80.04;100206.22;4182665;28;20044;-63
2022/11/20 03:29:35;;;;;;;22.35;15.23;;;;;;;4.66;80.35;100205.31;4181448;28;20044;-63
2022/11/20 03:31:41;;;;;;;22.73;15.05;;;;;;;4.70;80.19;100199.41;4181411;28;20128;-63
2022/11/20 03:33:44;;;;;;;21.65;15.27;;;;;;;4.64;80.19;100209.50;4194833;28;20563;-63
2022/11/20 03:35:47;;;;;;;17.58;12.18;;;;;;;4.66;80.18;100202.72;4197523;28;20501;-63
2022/11/20 03:37:50;;;;;;;21.90;14.05;;;;;;;4.74;80.34;100208.13;4188491;28;20041;-63
2022/11/20 03:39:53;;;;;;;24.05;16.05;;;;;;;4.79;80.17;100211.72;4189701;28;20041;-63
2022/11/20 03:41:55;;;;;;;21.27;15.52;;;;;;;4.83;80.19;100206.75;4197463;28;20079;-63
2022/11/20 03:44:00;;;;;;;22.33;14.90;;;;;;;4.81;80.06;100208.38;4191832;28;20043;-63
2022/11/20 03:46:04;;;;;;;24.90;16.02;;;;;;;4.82;79.92;100202.41;4180207;28;20044;-63
2022/11/20 03:48:08;;;;;;;22.73;16.17;;;;;;;4.85;79.62;100204.22;4186884;28;20102;-63
2022/11/20 03:50:13;;;;;;;27.58;16.73;;;;;;;4.88;79.60;100194.88;4193743;28;20036;-63
2022/11/20 03:52:16;;;;;;;26.23;17.50;;;;;;;4.89;79.44;100190.59;4187918;28;20056;-63
2022/11/20 03:54:18;;;;;;;20.88;13.98;;;;;;;4.93;79.65;100191.59;4194576;28;20040;-63
2022/11/20 03:56:24;;;;;;;24.88;15.93;;;;;;;4.88;79.65;100194.88;4181034;28;20052;-63
2022/11/20 03:58:27;;;;;;;30.23;17.10;;;;;;;4.90;79.80;100189.78;4181428;28;20040;-63
2022/11/20 04:00:30;;;;;;;28.88;19.00;;;;;;;4.96;79.40;100186.53;4180852;28;20033;-63
2022/11/20 04:02:33;;;;;;;30.77;19.98;;;;;;;4.92;79.18;100185.56;4181054;28;20044;-64
2022/11/20 04:04:37;;;;;;;25.13;16.38;;;;;;;4.93;79.28;100178.72;4193851;28;20050;-63
2022/11/20 04:06:40;;;;;;;24.88;16.88;;;;;;;4.96;79.33;100181.38;4187007;28;20033;-63
2022/11/20 04:08:43;;;;;;;24.50;16.20;;;;;;;4.96;79.59;100173.66;4188129;28;20041;-63
2022/11/20 04:10:51;;;;;;;27.30;17.20;;;;;;;4.96;79.74;100176.22;4192060;28;20064;-63
2022/11/20 04:12:54;;;;;;;30.92;18.17;;;;;;;4.96;79.63;100181.38;4193804;28;20094;-64
2022/11/20 04:14:56;;;;;;;24.45;16.50;;;;;;;5.14;78.44;100189.72;4178654;28;20045;-63
2022/11/20 04:16:59;;;;;;;29.63;17.98;;;;;;;5.10;77.79;100197.28;4179686;28;20041;-63
2022/11/20 04:19:05;;;;;;;24.77;17.40;;;;;;;4.97;77.94;100191.72;4189727;28;20497;-64
2022/11/20 04:21:10;;;;;;;27.15;17.95;;;;;;;4.89;78.75;100191.50;4186901;28;20033;-64
2022/11/20 04:23:13;;;;;;;25.23;16.73;;;;;;;4.84;79.09;100181.84;4195755;28;20048;-63
2022/11/20 04:25:16;;;;;;;26.73;18.13;;;;;;;4.84;79.17;100190.44;4181385;28;20056;-63
2022/11/20 04:27:19;;;;;;;35.88;20.70;;;;;;;4.89;78.91;100181.19;4180001;28;20037;-63
2022/11/20 04:29:22;;;;;;;24.35;15.48;;;;;;;4.86;79.15;100190.50;4187545;28;20446;-64
2022/11/20 04:31:28;;;;;;;24.35;15.93;;;;;;;4.87;79.50;100179.38;4192149;28;20415;-63
2022/11/20 04:33:30;;;;;;;26.10;16.75;;;;;;;4.88;79.67;100184.56;4188018;28;20036;-63
2022/11/20 04:35:36;;;;;;;24.58;15.20;;;;;;;4.92;80.14;100180.41;4195042;28;20510;-63
2022/11/20 04:37:40;;;;;;;25.50;16.40;;;;;;;4.97;79.99;100180.56;4180794;28;20141;-63
2022/11/20 04:39:43;;;;;;;35.85;16.33;;;;;;;4.96;80.23;100181.38;4195862;28;20081;-64
2022/11/20 04:41:46;;;;;;;30.30;17.92;;;;;;;4.99;80.27;100173.75;4197160;28;20040;-63
2022/11/20 04:43:50;;;;;;;24.75;16.58;;;;;;;4.97;80.25;100184.00;4194627;28;20406;-63
2022/11/20 04:45:54;;;;;;;24.67;16.58;;;;;;;4.93;80.20;100183.84;4183228;28;20131;-64
2022/11/20 04:47:57;;;;;;;25.10;17.48;;;;;;;4.96;80.33;100181.38;4202325;28;20039;-63
2022/11/20 04:50:00;;;;;;;26.60;17.27;;;;;;;5.01;80.59;100179.84;4183406;28;20074;-63
2022/11/20 04:52:03;;;;;;;22.45;15.43;;;;;;;4.99;80.57;100178.91;4188889;28;20501;-63
2022/11/20 04:54:07;;;;;;;27.38;17.48;;;;;;;4.98;80.26;100183.19;4196209;28;20071;-63
2022/11/20 04:56:11;;;;;;;26.48;17.25;;;;;;;4.99;80.32;100171.16;4187763;28;20040;-63
2022/11/20 04:58:15;;;;;;;32.47;19.05;;;;;;;4.98;80.51;100174.56;4180337;28;20044;-63
2022/11/20 05:00:18;;;;;;;25.42;16.05;;;;;;;4.97;80.52;100167.69;4180274;28;20422;-63
2022/11/20 05:02:22;;;;;;;26.67;16.85;;;;;;;4.96;80.87;100173.66;4182272;28;20044;-63
2022/11/20 05:04:25;;;;;;;22.92;15.68;;;;;;;4.96;80.97;100165.91;4186348;28;20036;-63
2022/11/20 05:06:28;;;;;;;24.17;16.65;;;;;;;4.94;80.97;100165.88;4188088;28;20044;-64
2022/11/20 05:08:32;;;;;;;24.75;15.82;;;;;;;4.97;80.99;100157.38;4182663;28;20045;-63
2022/11/20 05:10:36;;;;;;;27.02;17.05;;;;;;;4.97;81.14;100165.09;4180266;28;20158;-64
2022/11/20 05:12:41;;;;;;;29.15;17.10;;;;;;;4.97;81.09;100150.50;4187264;28;20040;-63
2022/11/20 05:14:45;;;;;;;23.48;15.60;;;;;;;4.99;81.40;100159.16;4187612;28;20596;-63
2022/11/20 05:16:48;;;;;;;23.63;17.00;;;;;;;5.04;80.97;100154.19;4196768;28;20051;-63
2022/11/20 05:18:53;;;;;;;27.88;17.77;;;;;;;5.19;80.62;100158.91;4187904;28;20044;-64
2022/11/20 05:20:57;;;;;;;24.90;16.95;;;;;;;5.22;79.75;100153.84;4188312;28;20040;-64
2022/11/20 05:23:00;;;;;;;27.90;18.00;;;;;;;5.19;79.73;100154.63;4193605;28;20036;-64
2022/11/20 05:25:02;;;;;;;30.90;19.17;;;;;;;5.23;79.67;100156.47;4191065;28;20037;-64
2022/11/20 05:27:07;;;;;;;29.60;20.73;;;;;;;5.24;78.86;100162.50;4190423;28;20040;-64
2022/11/20 05:29:11;;;;;;;27.90;18.08;;;;;;;5.22;79.43;100165.03;4180026;28;20045;-64
2022/11/20 05:31:15;;;;;;;28.00;17.70;;;;;;;5.18;79.61;100165.78;4180133;28;20107;-64
2022/11/20 05:33:23;;;;;;;26.63;16.95;;;;;;;5.18;80.01;100165.78;4184553;28;20110;-64
2022/11/20 05:35:26;;;;;;;26.67;16.60;;;;;;;5.20;80.10;100158.97;4187968;28;20037;-64
2022/11/20 05:37:29;;;;;;;26.10;16.95;;;;;;;5.22;80.26;100165.03;4186462;28;20036;-64
2022/11/20 05:39:32;;;;;;;28.05;18.60;;;;;;;5.22;80.39;100159.88;4180311;28;20088;-64
2022/11/20 05:41:35;;;;;;;26.35;18.30;;;;;;;5.25;80.56;100156.53;4186733;28;20066;-64
2022/11/20 05:43:40;;;;;;;25.92;16.67;;;;;;;5.27;80.53;100157.47;4188805;28;20048;-64
2022/11/20 05:45:43;;;;;;;21.45;14.77;;;;;;;5.24;80.56;100163.41;4191079;28;20051;-64
2022/11/20 05:47:46;;;;;;;22.33;15.40;;;;;;;5.18;80.75;100158.06;4190600;28;20044;-64
2022/11/20 05:49:49;;;;;;;21.77;14.43;;;;;;;5.20;80.69;100164.13;4181966;28;20044;-64
2022/11/20 05:51:52;;;;;;;22.05;14.73;;;;;;;5.22;80.56;100152.16;4187200;28;20036;-64
2022/11/20 05:53:57;;;;;;;21.55;14.80;;;;;;;5.24;80.45;100147.03;4179119;28;20388;-64
2022/11/20 05:56:00;;;;;;;29.00;18.90;;;;;;;5.35;80.10;100144.81;4179799;28;20130;-64
2022/11/20 05:58:03;;;;;;;23.08;15.70;;;;;;;5.27;80.26;100141.09;4179866;28;20110;-64
2022/11/20 06:00:09;;;;;;;27.30;15.68;;;;;;;5.27;80.13;100141.09;4178573;28;20485;-64
2022/11/20 06:02:12;;;;;;;27.02;16.65;;;;;;;5.24;80.12;100136.72;4182520;28;20091;-64
2022/11/20 06:04:15;;;;;;;20.77;13.30;;;;;;;5.24;80.61;100139.31;4184557;28;20043;-64
2022/11/20 06:06:19;;;;;;;25.10;16.13;;;;;;;5.28;80.67;100138.56;4190893;28;20573;-64
2022/11/20 06:08:22;;;;;;;26.65;17.05;;;;;;;5.37;80.36;100135.41;4182768;28;20095;-64
2022/11/20 06:10:25;;;;;;;27.35;16.23;;;;;;;5.36;80.02;100141.38;4182748;28;20045;-64
2022/11/20 06:12:28;;;;;;;26.80;17.40;;;;;;;5.33;79.86;100142.19;4182833;28;20041;-64
2022/11/20 06:14:30;;;;;;;21.58;15.65;;;;;;;5.31;79.94;100135.22;4180677;28;20037;-64
2022/11/20 06:16:35;;;;;;;25.05;16.25;;;;;;;5.28;79.94;100143.72;4181445;28;20045;-64
2022/11/20 06:18:38;;;;;;;23.08;15.32;;;;;;;5.28;80.23;100136.00;4187431;28;20045;-64
2022/11/20 06:20:41;;;;;;;23.02;14.98;;;;;;;5.30;80.57;100141.19;4190652;28;20525;-64
2022/11/20 06:22:44;;;;;;;24.52;15.73;;;;;;;5.46;80.15;100137.38;4183162;28;20045;-64
2022/11/20 06:24:48;;;;;;;22.27;15.55;;;;;;;5.49;79.33;100140.94;4190512;28;20161;-64
2022/11/20 06:26:50;;;;;;;23.55;15.43;;;;;;;5.41;79.50;100134.66;4190375;28;20494;-64
2022/11/20 06:28:55;;;;;;;22.50;14.93;;;;;;;5.37;79.81;100135.41;4189726;28;20033;-64
2022/11/20 06:30:59;;;;;;;22.60;15.10;;;;;;;5.36;79.85;100137.13;4182361;28;20051;-64
2022/11/20 06:33:03;;;;;;;22.73;14.27;;;;;;;5.37;80.17;100137.97;4190805;28;20075;-64
2022/11/20 06:35:06;;;;;;;23.13;14.65;;;;;;;5.36;80.57;100134.53;4187660;28;20119;-64
2022/11/20 06:37:09;;;;;;;22.13;13.90;;;;;;;5.33;80.70;100134.44;4190608;28;20045;-64
2022/11/20 06:39:12;;;;;;;20.08;13.57;;;;;;;5.37;80.68;100148.28;4182231;28;20041;-64
2022/11/20 06:41:18;;;;;;;20.40;13.60;;;;;;;5.42;80.67;100151.91;4182122;28;20048;-64
2022/11/20 06:43:22;;;;;;;21.30;15.05;;;;;;;5.41;80.22;100145.84;4191290;28;20154;-65
2022/11/20 06:45:25;;;;;;;21.33;14.05;;;;;;;5.43;79.99;100148.47;4192173;28;20048;-64
2022/11/20 06:47:28;;;;;;;19.20;13.02;;;;;;;5.42;80.14;100147.59;4182071;28;20041;-64
2022/11/20 06:49:34;;;;;;;21.65;14.15;;;;;;;5.43;80.22;100153.63;4184508;28;20036;-64
2022/11/20 06:51:36;;;;;;;17.30;11.95;;;;;;;5.41;80.65;100150.13;4193066;28;20498;-64
2022/11/20 06:53:39;;;;;;;20.25;13.48;;;;;;;5.46;80.52;100158.91;4191379;28;20037;-64
2022/11/20 06:55:44;;;;;;;20.20;13.82;;;;;;;5.48;80.38;100154.66;4189434;28;20029;-64
2022/11/20 06:57:47;;;;;;;21.30;14.32;;;;;;;5.50;80.57;100152.13;4197494;28;20077;-64
2022/11/20 06:59:56;;;;;;;23.08;14.80;;;;;;;5.50;80.53;100155.56;4194874;28;20398;-64
2022/11/20 07:01:59;;;;;;;16.13;11.18;;;;;;;5.52;80.61;100148.75;4181879;28;20044;-64
2022/11/20 07:04:02;;;;;;;23.48;15.93;;;;;;;5.52;80.76;100153.91;4180399;28;20040;-64
2022/11/20 07:06:07;;;;;;;22.92;14.65;;;;;;;5.51;80.91;100154.75;4195682;28;20127;-64
2022/11/20 07:08:10;;;;;;;;;;;;;;;5.44;81.01;100159.69;4180876;28;20040;-64
2022/11/20 07:10:13;;;;;;;25.42;15.38;;;;;;;5.47;81.22;100163.19;4181791;28;19921;-64
2022/11/20 07:12:16;;;;;;;26.10;16.15;;;;;;;5.50;80.88;100157.28;4195626;28;20070;-64
2022/11/20 07:14:19;;;;;;;23.45;15.85;;;;;;;5.56;80.55;100160.91;4189651;28;20036;-64
2022/11/20 07:16:21;;;;;;;22.33;14.90;;;;;;;5.56;80.65;100160.91;4187014;28;20441;-64
2022/11/20 07:18:24;;;;;;;25.17;14.95;;;;;;;5.57;80.49;100165.22;4192295;28;20048;-64
2022/11/20 07:20:27;;;;;;;19.42;13.25;;;;;;;5.58;80.96;100156.66;4194066;28;20432;-64
2022/11/20 07:22:32;;;;;;;21.75;14.50;;;;;;;5.57;80.90;100166.94;4181429;28;20036;-65
2022/11/20 07:24:35;;;;;;;19.10;12.15;;;;;;;5.58;81.23;100160.97;4196044;28;20047;-63
2022/11/20 07:26:37;;;;;;;23.48;14.98;;;;;;;5.57;81.21;100160.06;4188535;28;20037;-64
2022/11/20 07:28:45;;;;;;;21.27;14.95;;;;;;;5.58;81.25;100159.25;4184972;28;20467;-64
2022/11/20 07:30:51;;;;;;;25.30;15.98;;;;;;;5.64;80.94;100162.84;4188830;28;20048;-64
2022/11/20 07:32:55;;;;;;;23.05;15.75;;;;;;;5.63;80.93;100163.66;4188410;28;20528;-64
2022/11/20 07:34:58;;;;;;;24.98;17.60;;;;;;;5.67;80.86;100168.09;4195617;28;20048;-64
2022/11/20 07:37:01;;;;;;;33.40;21.70;;;;;;;5.70;80.43;100157.88;4186512;28;20402;-64
2022/11/20 07:39:13;;;;;;;26.27;17.52;;;;;;;5.68;80.26;100159.50;4181337;28;20465;-64
2022/11/20 07:41:16;;;;;;;24.92;17.48;;;;;;;5.68;80.54;100159.50;4163740;28;20100;-63
2022/11/20 07:43:19;;;;;;;30.98;21.50;;;;;;;5.74;80.35;100157.13;4188694;28;20478;-64
2022/11/20 07:45:23;;;;;;;33.05;19.40;;;;;;;5.73;80.70;100165.69;4192832;28;20033;-64
2022/11/20 07:47:26;;;;;;;33.03;17.63;;;;;;;5.70;80.73;100168.19;4195082;28;20310;-64
2022/11/20 07:49:29;;;;;;;25.95;16.25;;;;;;;5.72;80.36;100174.25;4181045;28;20033;-64
2022/11/20 07:51:32;;;;;;;28.50;17.17;;;;;;;5.76;81.05;100164.06;4181335;28;20043;-64
2022/11/20 07:53:35;;;;;;;31.80;18.95;;;;;;;5.74;80.93;100165.72;4180356;28;20457;-64
2022/11/20 07:55:39;;;;;;;28.33;18.23;;;;;;;5.77;81.08;100164.94;4181048;28;20040;-64
2022/11/20 07:57:42;;;;;;;33.08;18.75;;;;;;;5.72;81.36;100166.50;4179858;28;20048;-64
2022/11/20 07:59:45;;;;;;;30.95;19.70;;;;;;;5.77;80.78;100170.97;4181070;28;20087;-64
2022/11/20 08:01:48;;;;;;;24.95;16.00;;;;;;;5.71;80.97;100167.31;4182885;28;20068;-64
2022/11/20 08:03:51;;;;;;;24.48;16.20;;;;;;;5.71;81.04;100169.91;4188306;28;20036;-64
2022/11/20 08:05:54;;;;;;;28.90;17.17;;;;;;;5.74;81.31;100170.03;4180908;28;20448;-64
2022/11/20 08:07:57;;;;;;;22.98;16.17;;;;;;;5.74;81.50;100167.44;4179702;28;20045;-64
2022/11/20 08:09:59;;;;;;;24.05;15.05;;;;;;;5.76;81.38;100173.50;4181053;28;20510;-64
2022/11/20 08:14:27;;;;;;;21.63;14.15;;;;;;;5.80;81.70;100175.34;4178908;28;20107;-64
2022/11/20 08:16:29;;;;;;;;;;;;;;;5.76;81.49;100173.50;4188808;28;20043;-64
2022/11/20 08:18:32;;;;;;;19.10;12.50;;;;;;;5.77;81.51;100175.28;4183069;28;20424;-64
2022/11/20 08:20:36;;;;;;;22.95;14.13;;;;;;;5.73;81.32;100176.00;4180745;28;20495;-65
2022/11/20 08:22:40;;;;;;;21.08;13.50;;;;;;;5.79;81.27;100188.22;4184331;28;20041;-64
2022/11/20 08:24:43;;;;;;;24.25;15.63;;;;;;;5.80;81.66;100190.84;4180252;28;20045;-64
2022/11/20 08:26:46;;;;;;;22.98;15.40;;;;;;;5.97;81.02;100198.19;4181698;28;20041;-64
2022/11/20 08:28:54;;;;;;;22.73;16.20;;;;;;;6.02;80.53;100199.22;4181153;28;20049;-64
2022/11/20 08:30:59;;;;;;;21.75;14.88;;;;;;;6.04;80.34;100194.97;4188682;28;20067;-64
2022/11/20 08:33:04;;;;;;;18.17;13.32;;;;;;;5.88;80.48;100198.78;4187118;28;20398;-64
2022/11/20 08:35:07;;;;;;;18.45;12.63;;;;;;;5.84;81.09;100197.84;4186765;28;20114;-64
2022/11/20 08:37:10;;;;;;;22.85;15.77;;;;;;;5.85;81.35;100201.28;4183689;28;20032;-64
2022/11/20 08:39:13;;;;;;;23.77;15.98;;;;;;;5.92;80.38;100204.06;4179335;28;20044;-64
2022/11/20 08:41:26;;;;;;;21.15;15.15;;;;;;;5.93;80.56;100208.41;4194634;28;20044;-64
2022/11/20 08:43:29;;;;;;;18.20;12.77;;;;;;;5.79;80.67;100214.88;4194156;28;20538;-64
2022/11/20 08:45:33;;;;;;;20.17;14.73;;;;;;;5.74;81.43;100217.31;4188059;28;20040;-64
2022/11/20 08:47:37;;;;;;;;;;;;;;;5.66;81.48;100217.91;4197113;28;20040;-63
2022/11/20 08:49:40;;;;;;;19.88;13.48;;;;;;;5.69;81.68;100213.72;4185906;28;19920;-64
2022/11/20 08:51:43;;;;;;;20.95;14.13;;;;;;;5.76;81.95;100220.81;4188338;28;20044;-64
2022/11/20 08:53:48;;;;;;;20.17;13.63;;;;;;;5.83;81.61;100221.88;4194172;28;20044;-64
2022/11/20 08:55:51;;;;;;;;;;;;;;;5.82;81.52;100225.28;4184630;28;20047;-64
2022/11/20 08:57:53;;;;;;;21.77;14.35;;;;;;;5.80;81.39;100226.94;4185111;28;19927;-64
2022/11/20 08:59:56;;;;;;;22.63;16.00;;;;;;;5.76;81.68;100230.25;4181735;28;20044;-64
2022/11/20 09:02:10;;;;;;;21.67;14.88;;;;;;;5.77;82.03;100229.44;4194460;28;20045;-64
2022/11/20 09:04:14;;;;;;;21.30;14.13;;;;;;;5.77;81.98;100230.31;4183538;28;20065;-64
2022/11/20 09:06:17;;;;;;;22.13;15.57;;;;;;;5.83;81.58;100226.16;4186657;28;20037;-64
2022/11/20 09:08:20;;;;;;;22.35;14.85;;;;;;;5.91;81.47;100233.31;4180131;28;20037;-64
2022/11/20 09:10:23;;;;;;;24.20;15.02;;;;;;;5.90;81.88;100228.97;4186380;28;20044;-64
2022/11/20 09:12:27;;;;;;;21.15;15.20;;;;;;;5.90;81.58;100225.53;4191972;28;20478;-64
2022/11/20 09:14:30;;;;;;;21.48;14.27;;;;;;;5.84;82.28;100231.38;4188929;28;20037;-64
2022/11/20 09:16:32;;;;;;;23.92;14.68;;;;;;;5.86;82.24;100224.53;4193394;28;20052;-64
2022/11/20 09:18:38;;;;;;;21.58;15.45;;;;;;;5.94;81.60;100224.75;4179498;28;20043;-64
2022/11/20 09:20:41;;;;;;;20.55;14.82;;;;;;;5.97;81.52;100229.13;4186721;28;20037;-64
2022/11/20 09:22:44;;;;;;;19.83;13.88;;;;;;;6.05;81.67;100227.69;4179867;28;20037;-64
2022/11/20 09:24:47;;;;;;;20.50;14.25;;;;;;;6.07;81.60;100226.03;4194863;28;20047;-64
2022/11/20 09:26:50;;;;;;;21.45;14.32;;;;;;;6.09;81.44;100230.41;4194988;28;20068;-64
2022/11/20 09:28:53;;;;;;;22.63;14.80;;;;;;;6.14;81.22;100230.53;4185768;28;20059;-64
2022/11/20 09:31:00;;;;;;;23.83;14.85;;;;;;;6.16;81.35;100225.41;4190891;28;20462;-64
2022/11/20 09:33:05;;;;;;;22.55;15.55;;;;;;;6.20;81.29;100235.00;4182148;28;20040;-64
2022/11/20 09:35:10;;;;;;;20.20;13.52;;;;;;;6.26;80.84;100236.06;4181226;28;20044;-64
2022/11/20 09:37:13;;;;;;;23.83;14.90;;;;;;;6.25;81.03;100242.03;4190506;28;20103;-64
2022/11/20 09:39:16;;;;;;;26.90;18.13;;;;;;;6.37;80.94;100243.22;4187061;28;20119;-64
2022/11/20 09:41:49;;;;;;;33.85;21.15;;;;;;;6.42;80.56;100236.47;4197956;28;20468;-64